Pagrindinis puslapis
METAR-TAF:

METAR-TAF

Oro uostai :

Ušuaja, Argentina

platuma: 54-48S, ilguma: 068-19W, Aukštis: 16 m

Dabartinis oras

Ataskaita buvo paskelbta 1 valandą ir 2 minutes, ne 08:00 UTC
Vėjas 17 kt iš Pietvakarių su gūsio iki 27 kt
Temperatūra 9°C
Drėgmė 76%
Slėgis 1005 hPa
Matomumas 10 km arba daugiau
Išsisklaidę debesys ne aukštis 3500 ft
Išsisklaidę debesys ne aukštis 20000 ft

METAR: SAWH 190800Z 23017G27KT 9999 SCT035 SCT200 09/05 Q1005

Laikas: 06:02 (09:02 UTC)

Prognozė

Ataskaita buvo paskelbta 4 valandos ir 2 minutes, ne 05:00 UTC
Prognozė galioja nuo 19 metu 06 UTC su 20 metu 06 UTC
Vėjas 15 kt iš Vakarų/Pietvakarių
Matomumas 10 km arba daugiau
Išsisklaidę debesys ne aukštis 4000 ft
Tapsmas
nuo 19 metu 10 UTC su 19 metu 12 UTC
Vėjas 3 kt nuo kintamojo kryptimis
Tapsmas
nuo 20 metu 01 UTC su 20 metu 03 UTC
Vėjas 15 kt iš Šiaurės/Šiaurės Rytų

TAF: SAWH 190500Z 1906/2006 25015KT 9999 SCT040 TX19/1919Z TN07/1910Z BECMG 1910/1912 VRB03KT BECMG 2001/2003 02015KT

Orai ataskaitas ir orų prognozės (METAR, TAF).

turimą stotys yra geltonos ir raudonos taškus žemėlapyje.

Perkelti pele per norėdami pamatyti stoties vardą.

Tada spustelėkite, norėdami matyti oro stebėjimo ir prognozės.

Norėdami pakeisti žemėlapį: spustelėkite ant žalios mygtukų su juodo kryžiaus žemyn,; žalią mygtuką su brūkšneliu, jei norite nutolinti; arba žalių rodyklių gretimoms žemėlapius.


METAR-TAF: